Terminal Aerodrome Forecast
Issued by NWS

Home | Current Version | Previous Version | Text Only | Print | Product List | Glossary On
Versions: 1 2 3 4 5 6 7 8 9 10 11 12 13 14 15
000
FTUS43 KSGF 291100
TAFJLN
TAF
KJLN 291120Z 2912/3012 33012KT P6SM SKC
     FM291215 34013G23KT P6SM OVC020
     FM291900 34013G22KT P6SM SCT250
     FM292300 35006KT P6SM SKC=

USA.gov is the U.S. government's official web portal to all federal, state and local government web resources and services.